Data for 10/25/2016

Time Sea-Level Adjusted Pressure Absolute Pressure Temperature Relative Humidity Dew Point   
(mb) (inHg) (mb) (inHg) (C) (F) (%) (C) (F)
00:05 1018 30.06 847 25.01 9 48.2 78 5.4 41.7
00:10 1018 30.06 847 25.01 9 48.2 79 5.5 42
00:15 1018 30.06 847 25.01 8.7 47.6 82 5.7 42.3
00:20 1018 30.06 847 25.01 8.3 47 83 5.6 42
00:25 1018 30.06 847 25.01 8.2 46.7 83 5.4 41.8
00:30 1018 30.06 847 25.01 8.1 46.6 85 5.7 42.3
00:35 1018 30.06 847 25.01 7.8 46 87 5.8 42.4
00:40 1018 30.06 847 25.01 7.5 45.5 89 5.9 42.5
00:45 1018 30.06 847 25.01 7.3 45.1 90 5.8 42.4
00:50 1018 30.06 847 25.01 7.3 45.1 90 5.8 42.4
00:55 1018 30.06 847 25.01 7.4 45.4 89 5.8 42.4
01:00 1017 30.03 847 25.01 7.5 45.5 89 5.8 42.5
01:05 1017 30.03 847 25.01 7.7 45.9 88 5.8 42.5
01:10 1018 30.06 847 25.01 8 46.3 87 5.9 42.7
01:15 1018 30.06 847 25.01 8 46.4 87 5.9 42.7
01:20 1018 30.06 847 25.01 8 46.3 88 6.1 43
01:25 1018 30.06 847 25.01 7.9 46.2 88 6 42.8
01:30 1018 30.06 847 25.01 7.9 46.3 87 5.8 42.5
01:35 1018 30.06 847 25.01 7.8 46.1 88 5.9 42.7
01:40 1017 30.03 847 25.01 7.6 45.6 88 5.8 42.4
01:45 1018 30.06 847 25.01 7.5 45.6 89 5.8 42.5
01:50 1018 30.06 847 25.01 7.6 45.7 89 5.9 42.6
01:55 1018 30.06 847 25.01 7.7 45.8 88 5.8 42.5
02:00 1018 30.06 847 25.01 7.6 45.7 89 5.8 42.5
02:05 1018 30.06 847 25.01 7.6 45.6 89 5.8 42.4
02:10 1018 30.06 847 25.01 7.4 45.3 89 5.7 42.3
02:15 1018 30.06 847 25.01 7.3 45.1 89 5.6 42.1
02:20 1018 30.06 847 25.01 7.2 45 89 5.6 42.1
02:25 1018 30.06 847 25.01 7.3 45.1 89 5.6 42
02:30 1018 30.06 847 25.01 7.3 45.2 89 5.7 42.2
02:35 1018 30.06 847 25.01 7.3 45.1 89 5.6 42
02:40 1018 30.06 847 25.01 7.1 44.8 89 5.5 41.9
02:45 1018 30.06 847 25.01 7 44.6 89 5.4 41.7
02:50 1018 30.06 847 25.01 7 44.5 89 5.3 41.5
02:55 1018 30.06 847 25.01 6.8 44.3 90 5.3 41.5
03:00 1018 30.06 847 25.01 6.7 44 90 5.2 41.4
03:05 1018 30.06 847 25.01 6.7 44 90 5.2 41.4
03:10 1018 30.06 847 25.01 6.7 44.1 90 5.3 41.5
03:15 1018 30.06 847 25.01 6.9 44.4 90 5.3 41.5
03:20 1018 30.06 847 25.01 6.9 44.4 89 5.2 41.4
03:25 1018 30.06 847 25.01 6.8 44.2 89 5.2 41.3
03:30 1018 30.06 847 25.01 6.7 44.1 90 5.2 41.3
03:35 1018 30.06 847 25.01 6.8 44.2 89 5.2 41.3
03:40 1018 30.06 847 25.01 6.9 44.4 89 5.1 41.2
03:45 1018 30.06 847 25.01 6.8 44.2 89 5 41.1
03:50 1018 30.06 847 25.01 6.6 43.9 89 5 40.9
03:55 1018 30.06 847 25.01 6.5 43.6 89 4.8 40.7
04:00 1018 30.06 847 25.01 6.4 43.6 90 4.9 40.8
04:05 1018 30.06 847 25.01 6.4 43.6 90 4.9 40.8
04:10 1018 30.06 847 25.01 6.4 43.5 90 4.8 40.6
04:15 1018 30.06 847 25.01 6.4 43.5 88 4.6 40.3
04:20 1018 30.06 847 25.01 6.5 43.7 88 4.6 40.4
04:25 1018 30.06 847 25.01 6.5 43.7 88 4.6 40.4
04:30 1018 30.06 847 25.01 6.7 44 87 4.6 40.3
04:35 1018 30.06 847 25.01 6.7 44 87 4.7 40.5
04:40 1018 30.06 847 25.01 6.6 43.9 87 4.6 40.3
04:45 1018 30.06 847 25.01 6.6 43.8 88 4.7 40.4
04:50 1018 30.06 848 25.04 6.4 43.5 88 4.5 40.2
04:55 1018 30.06 848 25.04 6.2 43.2 89 4.5 40.1
05:00 1018 30.06 847 25.01 6.1 43 89 4.4 40
05:05 1018 30.06 848 25.04 6.1 42.9 89 4.4 39.9
05:10 1018 30.06 848 25.04 6 42.9 89 4.3 39.8
05:15 1018 30.06 848 25.04 6.1 43 89 4.4 39.9
05:20 1018 30.06 848 25.04 6.2 43.1 88 4.4 39.9
05:25 1018 30.06 848 25.04 6.2 43.1 88 4.4 39.9
05:30 1019 30.09 848 25.04 6.3 43.3 88 4.4 39.9
05:35 1019 30.09 848 25.04 6.4 43.5 87 4.5 40.1
05:40 1019 30.09 848 25.04 6.5 43.6 87 4.5 40
05:45 1019 30.09 848 25.04 6.4 43.6 87 4.4 39.9
05:50 1019 30.09 848 25.04 6.2 43.2 87 4.1 39.5
05:55 1019 30.09 848 25.04 5.9 42.6 87 3.9 39.1
06:00 1019 30.09 848 25.04 5.7 42.3 88 3.8 38.9
06:05 1019 30.09 848 25.04 5.7 42.2 87 3.7 38.7
06:10 1019 30.09 848 25.04 5.7 42.2 87 3.7 38.7
06:15 1019 30.09 848 25.04 6 42.8 85 3.7 38.6
06:20 1019 30.09 848 25.04 6.6 44 82 3.8 38.9
06:25 1019 30.09 848 25.04 6.4 43.6 83 3.8 38.9
06:30 1019 30.09 848 25.04 6 42.9 84 3.6 38.4
06:35 1019 30.09 848 25.04 6.3 43.4 82 3.5 38.3
06:40 1019 30.09 848 25.04 6.5 43.6 81 3.4 38.1
06:45 1019 30.09 848 25.04 6.3 43.3 83 3.5 38.3
06:50 1019 30.09 848 25.04 6.1 42.9 84 3.5 38.3
06:55 1019 30.09 848 25.04 6.4 43.5 83 3.7 38.7
07:00 1019 30.09 848 25.04 6.2 43.1 83 3.5 38.3
07:05 1019 30.09 848 25.04 5.8 42.4 85 3.4 38.1
07:10 1019 30.09 848 25.04 5.5 41.8 86 3.2 37.8
07:15 1019 30.09 848 25.04 5.3 41.6 86 3.2 37.8
07:20 1019 30.09 849 25.07 5.2 41.4 86 3.1 37.5
07:25 1019 30.09 849 25.07 5.2 41.3 86 3 37.4
07:30 1019 30.09 849 25.07 5.2 41.3 86 3 37.5
07:35 1019 30.09 849 25.07 5.3 41.5 85 3 37.5
07:40 1019 30.09 849 25.07 5.5 41.9 82 2.7 36.9
07:45 1019 30.09 849 25.07 6.1 42.9 80 3 37.3
07:50 1019 30.09 849 25.07 6.3 43.4 79 3 37.5
07:55 1019 30.09 849 25.07 6.7 44 80 3.4 38.1
08:00 1020 30.12 849 25.07 6.7 44.1 79 3.4 38.1
08:05 1020 30.12 849 25.07 6.9 44.4 79 3.4 38.2
08:10 1020 30.12 849 25.07 7.2 44.9 79 3.7 38.7
08:15 1020 30.12 849 25.07 7.4 45.2 79 3.9 39
08:20 1020 30.12 849 25.07 7.5 45.4 78 3.9 39
08:25 1020 30.12 849 25.07 7.4 45.3 80 4.1 39.4
08:30 1020 30.12 849 25.07 7.3 45.2 78 3.8 38.8
08:35 1020 30.12 849 25.07 7.6 45.7 76 3.7 38.6
08:40 1020 30.12 849 25.07 7.7 45.8 78 4.1 39.3
08:45 1019 30.09 849 25.07 7.7 45.8 77 3.9 39.1
08:50 1020 30.12 849 25.07 8.1 46.6 77 4.4 39.9
08:55 1020 30.12 849 25.07 8.8 47.9 74 4.5 40
09:00 1020 30.12 849 25.07 9.3 48.7 71 4.4 40
09:05 1020 30.12 849 25.07 9.3 48.7 72 4.5 40.1
09:10 1020 30.12 849 25.07 9.6 49.2 71 4.7 40.4
09:15 1020 30.12 849 25.07 10 50 69 4.6 40.2
09:20 1020 30.12 849 25.07 10.6 51 68 4.9 40.9
09:25 1020 30.12 849 25.07 10.4 50.7 71 5.4 41.8
09:30 1020 30.12 849 25.07 10.6 51.1 70 5.3 41.6
09:35 1020 30.12 849 25.07 11.3 52.3 65 5.1 41.1
09:40 1020 30.12 849 25.07 11.3 52.4 66 5.2 41.4
09:45 1020 30.12 849 25.07 11.2 52.2 65 4.9 40.8
09:50 1020 30.12 849 25.07 11.7 53 65 5.4 41.8
09:55 1020 30.12 849 25.07 12 53.6 64 5.4 41.8
10:00 1020 30.12 849 25.07 11.8 53.2 63 5.1 41.2
10:05 1020 30.12 849 25.07 11.5 52.6 63 4.7 40.5
10:10 1020 30.12 849 25.07 11.1 52 66 5 40.9
10:15 1020 30.12 849 25.07 11 51.7 67 5.1 41.1
10:20 1020 30.12 849 25.07 11.2 52.2 66 5.1 41.2
10:25 1020 30.12 849 25.07 11.8 53.3 63 5.2 41.3
10:30 1020 30.12 849 25.07 12.6 54.7 59 5 41
10:35 1020 30.12 849 25.07 13 55.4 57 4.7 40.4
10:40 1020 30.12 849 25.07 12.4 54.3 59 4.5 40.2
10:45 1020 30.12 849 25.07 12.8 55 55 3.9 39.1
10:50 1020 30.12 849 25.07 13.4 56.1 54 4.3 39.7
10:55 1020 30.12 849 25.07 14.1 57.4 51 4.3 39.8
11:00 1020 30.12 849 25.07 14.7 58.5 51 4.8 40.6
11:05 1020 30.12 849 25.07 14.9 58.7 52 5.1 41.3
11:10 1020 30.12 849 25.07 14.7 58.5 50 4.4 40
11:15 1020 30.12 849 25.07 15.3 59.6 48 4.5 40.1
11:20 1020 30.12 849 25.07 15.6 60.1 47 4.4 40
11:25 1020 30.12 849 25.07 14.9 58.7 49 4.5 40
11:30 1020 30.12 849 25.07 14.9 58.9 50 4.6 40.2
11:35 1020 30.12 849 25.07 15 59 45 3.2 37.8
11:40 1020 30.12 849 25.07 15.3 59.6 46 3.9 39
11:45 1020 30.12 849 25.07 16.1 60.9 44 3.9 38.9
11:50 1020 30.12 849 25.07 15.6 60.1 46 4 39.2
11:55 1020 30.12 849 25.07 16.1 61 43 3.5 38.3
12:00 1020 30.12 849 25.07 15.7 60.3 44 3.7 38.6
12:05 1020 30.12 849 25.07 16.2 61.1 43 3.8 38.9
12:10 1020 30.12 849 25.07 16.7 62 42 3.8 38.8
12:15 1020 30.12 849 25.07 17.1 62.8 42 4.3 39.7
12:20 1020 30.12 849 25.07 17.4 63.2 39 3.2 37.8
12:25 1020 30.12 849 25.07 17.5 63.5 39 3.4 38
12:30 1020 30.12 849 25.07 17.8 64 37 3.1 37.6
12:35 1020 30.12 849 25.07 18 64.4 37 3.1 37.6
12:40 1020 30.12 849 25.07 17.6 63.6 39 3.7 38.6
12:45 1020 30.12 849 25.07 17.3 63.2 37 2.5 36.4
12:50 1020 30.12 849 25.07 17 62.6 37 2.4 36.4
12:55 1020 30.12 849 25.07 17.7 63.9 34 1.9 35.4
13:00 1020 30.12 849 25.07 18.3 64.9 34 2.2 35.9
13:05 1020 30.12 849 25.07 18.1 64.6 36 2.9 37.1
13:10 1020 30.12 849 25.07 17.3 63.2 38 2.9 37.2
13:15 1020 30.12 849 25.07 17.7 63.9 35 2.2 35.9
13:20 1020 30.12 849 25.07 17.9 64.1 35 2.2 36
13:25 1020 30.12 849 25.07 18.2 64.7 33 2 35.5
13:30 1020 30.12 849 25.07 18.2 64.7 35 2.6 36.6
13:35 1020 30.12 849 25.07 17 62.6 38 2.6 36.6
13:40 1020 30.12 849 25.07 17.1 62.7 38 2.6 36.8
13:45 1020 30.12 849 25.07 16.7 62.1 38 2.6 36.6
13:50 1020 30.12 849 25.07 17.2 62.9 36 2.1 35.8
13:55 1020 30.12 849 25.07 16.7 62 38 2.4 36.3
14:00 1020 30.12 849 25.07 16 60.8 38 1.9 35.5
14:05 1020 30.12 849 25.07 16.2 61.1 37 1.7 35.1
14:10 1020 30.12 849 25.07 16.6 61.9 37 1.9 35.4
14:15 1020 30.12 849 25.07 17.4 63.4 33 1.2 34.1
14:20 1020 30.12 849 25.07 17.5 63.6 35 1.9 35.3
14:25 1020 30.12 849 25.07 16.8 62.2 36 1.7 35
14:30 1020 30.12 849 25.07 16.9 62.5 34 1.3 34.3
14:35 1020 30.12 849 25.07 17.2 63 34 1.2 34.2
14:40 1020 30.12 849 25.07 17.2 63 35 1.9 35.5
14:45 1020 30.12 849 25.07 16.6 61.9 37 2 35.6
14:50 1020 30.12 849 25.07 16.1 61 37 1.6 34.8
14:55 1020 30.12 849 25.07 16.2 61.2 37 1.6 34.8
15:00 1020 30.12 849 25.07 16.3 61.3 36 1.3 34.4
15:05 1020 30.12 849 25.07 17 62.6 36 1.8 35.3
15:10 1020 30.12 849 25.07 16.9 62.5 37 2.4 36.4
15:15 1020 30.12 849 25.07 16.4 61.4 39 2.6 36.7
15:20 1020 30.12 849 25.07 16.2 61.2 39 2.3 36.2
15:25 1020 30.12 849 25.07 16.4 61.5 38 2.1 35.7
15:30 1020 30.12 849 25.07 16.4 61.4 38 1.9 35.5
15:35 1020 30.12 849 25.07 16.4 61.5 36 1.5 34.8
15:40 1020 30.12 849 25.07 16.2 61.2 37 1.8 35.3
15:45 1020 30.12 849 25.07 16.2 61.1 38 1.8 35.2
15:50 1020 30.12 849 25.07 16.2 61.1 37 1.8 35.2
15:55 1020 30.12 849 25.07 16.2 61.1 37 1.4 34.6
16:00 1020 30.12 849 25.07 16.1 61 40 2.5 36.6
16:05 1020 30.12 849 25.07 16.1 61 38 1.7 35.1
16:10 1020 30.12 849 25.07 15.9 60.6 39 1.9 35.4
16:15 1020 30.12 849 25.07 15.4 59.7 43 2.9 37.3
16:20 1020 30.12 849 25.07 14.6 58.2 44 2.6 36.7
16:25 1020 30.12 849 25.07 14.4 57.9 41 1.2 34.2
16:30 1020 30.12 850 25.1 14.7 58.5 43 2.4 36.3
16:35 1020 30.12 849 25.07 14.4 57.9 45 2.7 36.8
16:40 1020 30.12 849 25.07 14.1 57.4 43 1.9 35.5
16:45 1020 30.12 849 25.07 14.4 58 39 0.8 33.4
16:50 1020 30.12 849 25.07 14.9 58.9 40 1.6 34.9
16:55 1020 30.12 849 25.07 14.9 58.8 41 1.8 35.2
17:00 1020 30.12 850 25.1 14.7 58.4 44 2.6 36.6
17:05 1020 30.12 850 25.1 14 57.1 49 3.6 38.4
17:10 1020 30.12 850 25.1 13.6 56.5 48 2.8 37.1
17:15 1020 30.12 850 25.1 13.6 56.4 46 2.4 36.2
17:20 1021 30.15 850 25.1 13.6 56.5 48 2.8 37.1
17:25 1021 30.15 850 25.1 13.5 56.2 49 3.2 37.7
17:30 1021 30.15 850 25.1 13.2 55.8 51 3.3 37.9
17:35 1021 30.15 850 25.1 13.1 55.6 51 3.4 38.2
17:40 1021 30.15 850 25.1 13 55.4 53 3.7 38.7
17:45 1021 30.15 850 25.1 12.9 55.2 53 3.6 38.5
17:50 1021 30.15 850 25.1 12.7 54.9 53 3.4 38.2
17:55 1021 30.15 850 25.1 12.9 55.2 52 3.4 38
18:00 1021 30.15 850 25.1 13.1 55.5 47 2.2 35.9
18:05 1021 30.15 850 25.1 13.3 55.9 47 2.3 36.1
18:10 1021 30.15 850 25.1 13.2 55.8 48 2.4 36.3
18:15 1021 30.15 850 25.1 13 55.5 51 3.1 37.6
18:20 1021 30.15 850 25.1 12.7 54.9 51 3 37.4
18:25 1021 30.15 850 25.1 12.7 54.9 50 2.6 36.7
18:30 1021 30.15 850 25.1 12.7 54.8 50 2.7 36.9
18:35 1021 30.15 850 25.1 12.7 54.8 52 3 37.5
18:40 1021 30.15 850 25.1 12.5 54.5 52 3.1 37.5
18:45 1021 30.15 850 25.1 12.5 54.4 53 3.2 37.8
18:50 1021 30.15 850 25.1 12.4 54.2 53 3.2 37.7
18:55 1021 30.15 850 25.1 12 53.5 59 4.2 39.5
19:00 1021 30.15 850 25.1 11.4 52.4 60 3.9 39
19:05 1021 30.15 850 25.1 11.2 52.1 59 3.5 38.2
19:10 1021 30.15 850 25.1 11.5 52.7 55 2.7 36.9
19:15 1021 30.15 850 25.1 11.8 53.2 53 2.6 36.8
19:20 1021 30.15 850 25.1 11.9 53.3 56 3.4 38.2
19:25 1021 30.15 850 25.1 11.7 53 56 3.2 37.7
19:30 1021 30.15 850 25.1 11.6 53 56 3.1 37.6
19:35 1021 30.15 850 25.1 11.5 52.7 56 3 37.4
19:40 1021 30.15 850 25.1 11.4 52.5 57 3.2 37.8
19:45 1021 30.15 850 25.1 11.1 52 58 3.2 37.7
19:50 1021 30.15 850 25.1 10.9 51.6 58 3 37.5
19:55 1021 30.15 850 25.1 10.9 51.7 56 2.6 36.6
20:00 1021 30.15 850 25.1 11.3 52.3 55 2.5 36.6
20:05 1021 30.15 850 25.1 11.4 52.5 55 2.8 37.1
20:10 1021 30.15 850 25.1 11.3 52.4 53 2.2 35.9
20:15 1021 30.15 850 25.1 11.8 53.2 49 1.4 34.5
20:20 1021 30.15 850 25.1 12.4 54.4 47 1.4 34.6
20:25 1021 30.15 850 25.1 12.7 54.9 46 1.4 34.6
20:30 1021 30.15 850 25.1 12.9 55.1 45 1.2 34.1
20:35 1021 30.15 850 25.1 12.9 55.2 46 1.6 34.8
20:40 1021 30.15 850 25.1 12.8 55.1 45 1.3 34.4
20:45 1021 30.15 851 25.13 12.8 55 45 1.2 34.1
20:50 1021 30.15 851 25.13 12.7 54.8 46 1.3 34.3
20:55 1021 30.15 851 25.13 12.3 54.1 52 2.8 37.1
21:00 1022 30.18 851 25.13 11 51.7 56 2.6 36.7
21:05 1022 30.18 851 25.13 10.7 51.3 57 2.5 36.5
21:10 1022 30.18 851 25.13 10.6 51.2 56 2.2 36
21:15 1021 30.15 851 25.13 11.2 52.1 54 2.3 36.1
21:20 1021 30.15 851 25.13 11.7 53.1 49 1.4 34.6
21:25 1021 30.15 851 25.13 12.1 53.7 50 2.1 35.7
21:30 1021 30.15 851 25.13 12 53.6 50 2 35.6
21:35 1021 30.15 851 25.13 11 51.7 61 3.7 38.6
21:40 1021 30.15 851 25.13 8.5 47.4 65 2.5 36.4
21:45 1021 30.15 851 25.13 8.2 46.7 66 2.2 36
21:50 1021 30.15 851 25.13 8.4 47 64 1.9 35.4
21:55 1021 30.15 851 25.13 8.7 47.7 62 1.9 35.3
22:00 1022 30.18 851 25.13 8.9 48 61 1.9 35.4
22:05 1021 30.15 851 25.13 9 48.1 61 2 35.5
22:10 1022 30.18 851 25.13 8.9 47.9 61 1.9 35.4
22:15 1022 30.18 851 25.13 8.8 47.8 61 1.7 35.1
22:20 1022 30.18 851 25.13 8.9 48.1 61 1.8 35.2
22:25 1022 30.18 851 25.13 8.8 47.8 61 1.8 35.2
22:30 1022 30.18 851 25.13 8.8 47.9 61 1.7 35.1
22:35 1022 30.18 851 25.13 8.8 47.9 60 1.6 34.9
22:40 1022 30.18 851 25.13 8.9 48 61 1.7 35.1
22:45 1022 30.18 851 25.13 8.6 47.6 62 1.8 35.2
22:50 1022 30.18 851 25.13 8.2 46.8 63 1.7 35
22:55 1022 30.18 851 25.13 7.8 46 65 1.7 35
23:00 1022 30.18 851 25.13 7.5 45.4 65 1.4 34.5
23:05 1022 30.18 851 25.13 7.5 45.5 65 1.4 34.5
23:10 1022 30.18 851 25.13 7.5 45.5 65 1.4 34.5
23:15 1022 30.18 851 25.13 7.1 44.8 68 1.6 34.9
23:20 1022 30.18 851 25.13 7.3 45.1 64 1 33.8
23:25 1022 30.18 851 25.13 7.5 45.5 65 1.4 34.5
23:30 1022 30.18 851 25.13 7.4 45.3 65 1.2 34.2
23:35 1022 30.18 851 25.13 7.4 45.2 66 1.5 34.7
23:40 1022 30.18 851 25.13 7.2 44.9 66 1.2 34.2
23:45 1022 30.18 851 25.13 7.3 45.1 66 1.4 34.5
23:50 1022 30.18 851 25.13 7.1 44.8 66 1.2 34.2
23:55 1022 30.18 851 25.13 7 44.6 66 1.1 34
24:00 1022 30.18 851 25.13 7.4 45.4 63 0.9 33.6